sensor_id;sensor_type;location;lat;lon;timestamp;pressure;altitude;pressure_sealevel;temperature;humidity
8160;BME280;27404;52.398;9.646;2023-04-22T00:01:41;100380.03;;;11.00;99.80
8160;BME280;27404;52.398;9.646;2023-04-22T00:04:07;100381.81;;;10.94;100.00
8160;BME280;27404;52.398;9.646;2023-04-22T00:06:33;100373.31;;;11.08;100.00
8160;BME280;27404;52.398;9.646;2023-04-22T00:08:59;100367.72;;;11.15;100.00
8160;BME280;27404;52.398;9.646;2023-04-22T00:11:24;100362.06;;;11.21;99.91
8160;BME280;27404;52.398;9.646;2023-04-22T00:13:50;100353.94;;;11.09;100.00
8160;BME280;27404;52.398;9.646;2023-04-22T00:16:16;100356.19;;;11.13;100.00
8160;BME280;27404;52.398;9.646;2023-04-22T00:18:41;100355.25;;;11.07;100.00
8160;BME280;27404;52.398;9.646;2023-04-22T00:21:07;100359.03;;;10.89;100.00
8160;BME280;27404;52.398;9.646;2023-04-22T00:23:33;100349.09;;;11.00;100.00
8160;BME280;27404;52.398;9.646;2023-04-22T00:25:59;100331.47;;;11.07;100.00
8160;BME280;27404;52.398;9.646;2023-04-22T00:28:24;100336.69;;;11.09;100.00
8160;BME280;27404;52.398;9.646;2023-04-22T00:30:50;100335.91;;;10.96;100.00
8160;BME280;27404;52.398;9.646;2023-04-22T00:33:15;100335.44;;;11.00;100.00
8160;BME280;27404;52.398;9.646;2023-04-22T00:35:41;100340.78;;;10.94;100.00
8160;BME280;27404;52.398;9.646;2023-04-22T00:38:06;100336.81;;;10.85;100.00
8160;BME280;27404;52.398;9.646;2023-04-22T00:40:32;100336.84;;;10.73;100.00
8160;BME280;27404;52.398;9.646;2023-04-22T00:42:58;100336.91;;;10.61;100.00
8160;BME280;27404;52.398;9.646;2023-04-22T00:45:25;100344.72;;;10.70;100.00
8160;BME280;27404;52.398;9.646;2023-04-22T00:47:51;100347.94;;;10.66;100.00
8160;BME280;27404;52.398;9.646;2023-04-22T00:50:17;100343.94;;;10.57;100.00
8160;BME280;27404;52.398;9.646;2023-04-22T00:52:42;100334.59;;;10.41;100.00
8160;BME280;27404;52.398;9.646;2023-04-22T00:55:08;100340.41;;;10.45;100.00
8160;BME280;27404;52.398;9.646;2023-04-22T00:57:34;100338.41;;;10.40;100.00
8160;BME280;27404;52.398;9.646;2023-04-22T01:00:00;100331.97;;;10.46;100.00
8160;BME280;27404;52.398;9.646;2023-04-22T01:02:27;100331.88;;;10.41;100.00
8160;BME280;27404;52.398;9.646;2023-04-22T01:04:52;100326.16;;;10.43;100.00
8160;BME280;27404;52.398;9.646;2023-04-22T01:07:19;100331.25;;;10.51;100.00
8160;BME280;27404;52.398;9.646;2023-04-22T01:09:44;100330.41;;;10.38;100.00
8160;BME280;27404;52.398;9.646;2023-04-22T01:12:10;100332.56;;;10.48;100.00
8160;BME280;27404;52.398;9.646;2023-04-22T01:14:36;100330.81;;;10.42;100.00
8160;BME280;27404;52.398;9.646;2023-04-22T01:17:02;100339.09;;;10.35;100.00
8160;BME280;27404;52.398;9.646;2023-04-22T01:19:27;100349.00;;;10.25;100.00
8160;BME280;27404;52.398;9.646;2023-04-22T01:21:53;100335.34;;;10.13;100.00
8160;BME280;27404;52.398;9.646;2023-04-22T01:24:20;100342.25;;;10.03;100.00
8160;BME280;27404;52.398;9.646;2023-04-22T01:26:47;100340.00;;;10.00;100.00
8160;BME280;27404;52.398;9.646;2023-04-22T01:29:13;100339.97;;;10.12;100.00
8160;BME280;27404;52.398;9.646;2023-04-22T01:31:39;100335.47;;;10.18;100.00
8160;BME280;27404;52.398;9.646;2023-04-22T01:34:04;100335.94;;;10.03;100.00
8160;BME280;27404;52.398;9.646;2023-04-22T01:36:33;100337.84;;;10.14;100.00
8160;BME280;27404;52.398;9.646;2023-04-22T01:38:59;100332.84;;;10.11;100.00
8160;BME280;27404;52.398;9.646;2023-04-22T01:41:24;100337.38;;;10.05;100.00
8160;BME280;27404;52.398;9.646;2023-04-22T01:43:51;100334.75;;;9.99;100.00
8160;BME280;27404;52.398;9.646;2023-04-22T01:46:17;100331.19;;;10.10;100.00
8160;BME280;27404;52.398;9.646;2023-04-22T01:48:42;100336.28;;;10.18;100.00
8160;BME280;27404;52.398;9.646;2023-04-22T01:51:15;100339.28;;;10.17;100.00
8160;BME280;27404;52.398;9.646;2023-04-22T01:53:40;100323.63;;;10.00;100.00
8160;BME280;27404;52.398;9.646;2023-04-22T01:56:06;100326.94;;;10.02;100.00
8160;BME280;27404;52.398;9.646;2023-04-22T01:58:32;100328.81;;;10.02;100.00
8160;BME280;27404;52.398;9.646;2023-04-22T02:00:57;100325.53;;;9.88;100.00
8160;BME280;27404;52.398;9.646;2023-04-22T02:03:23;100323.84;;;9.99;100.00
8160;BME280;27404;52.398;9.646;2023-04-22T02:05:48;100315.66;;;9.87;100.00
8160;BME280;27404;52.398;9.646;2023-04-22T02:08:14;100323.50;;;9.71;100.00
8160;BME280;27404;52.398;9.646;2023-04-22T02:10:39;100329.81;;;9.60;100.00
8160;BME280;27404;52.398;9.646;2023-04-22T02:13:05;100325.31;;;9.66;100.00
8160;BME280;27404;52.398;9.646;2023-04-22T02:15:30;100320.31;;;9.74;100.00
8160;BME280;27404;52.398;9.646;2023-04-22T02:17:56;100319.25;;;9.87;100.00
8160;BME280;27404;52.398;9.646;2023-04-22T02:20:21;100307.94;;;9.96;100.00
8160;BME280;27404;52.398;9.646;2023-04-22T02:22:47;100313.53;;;9.89;100.00
8160;BME280;27404;52.398;9.646;2023-04-22T02:25:12;100300.03;;;9.82;100.00
8160;BME280;27404;52.398;9.646;2023-04-22T02:27:38;100300.13;;;9.87;100.00
8160;BME280;27404;52.398;9.646;2023-04-22T02:30:05;100301.31;;;9.80;100.00
8160;BME280;27404;52.398;9.646;2023-04-22T02:32:31;100311.06;;;9.75;100.00
8160;BME280;27404;52.398;9.646;2023-04-22T02:34:56;100296.22;;;9.71;100.00
8160;BME280;27404;52.398;9.646;2023-04-22T02:37:22;100303.22;;;9.67;100.00
8160;BME280;27404;52.398;9.646;2023-04-22T02:39:48;100299.56;;;9.61;100.00
8160;BME280;27404;52.398;9.646;2023-04-22T02:42:14;100296.81;;;9.61;100.00
8160;BME280;27404;52.398;9.646;2023-04-22T02:44:39;100292.19;;;9.50;100.00
8160;BME280;27404;52.398;9.646;2023-04-22T02:47:06;100286.38;;;9.58;100.00
8160;BME280;27404;52.398;9.646;2023-04-22T02:49:32;100295.97;;;9.61;100.00
8160;BME280;27404;52.398;9.646;2023-04-22T02:51:57;100292.91;;;9.45;100.00
8160;BME280;27404;52.398;9.646;2023-04-22T02:54:22;100288.03;;;9.24;100.00
8160;BME280;27404;52.398;9.646;2023-04-22T02:56:48;100279.72;;;9.30;100.00
8160;BME280;27404;52.398;9.646;2023-04-22T02:59:13;100283.63;;;9.34;100.00
8160;BME280;27404;52.398;9.646;2023-04-22T03:01:39;100286.16;;;9.36;100.00
8160;BME280;27404;52.398;9.646;2023-04-22T03:04:04;100296.00;;;9.37;100.00
8160;BME280;27404;52.398;9.646;2023-04-22T03:06:29;100281.88;;;9.40;100.00
8160;BME280;27404;52.398;9.646;2023-04-22T03:08:55;100291.47;;;9.43;100.00
8160;BME280;27404;52.398;9.646;2023-04-22T03:11:21;100293.03;;;9.51;100.00
8160;BME280;27404;52.398;9.646;2023-04-22T03:13:46;100285.44;;;9.41;100.00
8160;BME280;27404;52.398;9.646;2023-04-22T03:16:12;100289.22;;;9.28;100.00
8160;BME280;27404;52.398;9.646;2023-04-22T03:18:37;100279.38;;;9.27;100.00
8160;BME280;27404;52.398;9.646;2023-04-22T03:21:03;100284.69;;;9.33;100.00
8160;BME280;27404;52.398;9.646;2023-04-22T03:23:28;100272.00;;;9.15;100.00
8160;BME280;27404;52.398;9.646;2023-04-22T03:25:54;100284.91;;;9.08;100.00
8160;BME280;27404;52.398;9.646;2023-04-22T03:28:19;100273.88;;;9.03;100.00
8160;BME280;27404;52.398;9.646;2023-04-22T03:30:44;100276.38;;;9.04;100.00
8160;BME280;27404;52.398;9.646;2023-04-22T03:33:10;100266.28;;;9.05;100.00
8160;BME280;27404;52.398;9.646;2023-04-22T03:35:35;100265.94;;;9.01;100.00
8160;BME280;27404;52.398;9.646;2023-04-22T03:38:01;100275.31;;;9.06;100.00
8160;BME280;27404;52.398;9.646;2023-04-22T03:40:26;100260.69;;;8.88;100.00
8160;BME280;27404;52.398;9.646;2023-04-22T03:42:52;100269.75;;;9.00;100.00
8160;BME280;27404;52.398;9.646;2023-04-22T03:45:17;100272.91;;;8.85;100.00
8160;BME280;27404;52.398;9.646;2023-04-22T03:47:43;100267.59;;;8.91;100.00
8160;BME280;27404;52.398;9.646;2023-04-22T03:50:08;100265.81;;;8.84;100.00
8160;BME280;27404;52.398;9.646;2023-04-22T03:52:34;100269.34;;;8.85;100.00
8160;BME280;27404;52.398;9.646;2023-04-22T03:54:59;100276.31;;;8.69;100.00
8160;BME280;27404;52.398;9.646;2023-04-22T03:57:25;100276.91;;;8.71;100.00
8160;BME280;27404;52.398;9.646;2023-04-22T03:59:50;100270.56;;;8.58;100.00
8160;BME280;27404;52.398;9.646;2023-04-22T04:02:16;100273.19;;;8.65;100.00
8160;BME280;27404;52.398;9.646;2023-04-22T04:04:41;100275.06;;;8.53;100.00
8160;BME280;27404;52.398;9.646;2023-04-22T04:07:07;100272.84;;;8.43;100.00
8160;BME280;27404;52.398;9.646;2023-04-22T04:09:32;100269.63;;;8.34;100.00
8160;BME280;27404;52.398;9.646;2023-04-22T04:11:58;100269.63;;;8.34;100.00
8160;BME280;27404;52.398;9.646;2023-04-22T04:14:23;100265.59;;;8.37;100.00
8160;BME280;27404;52.398;9.646;2023-04-22T04:16:49;100268.84;;;8.45;100.00
8160;BME280;27404;52.398;9.646;2023-04-22T04:19:14;100264.63;;;8.50;100.00
8160;BME280;27404;52.398;9.646;2023-04-22T04:21:40;100265.88;;;8.47;100.00
8160;BME280;27404;52.398;9.646;2023-04-22T04:24:06;100275.09;;;8.46;100.00
8160;BME280;27404;52.398;9.646;2023-04-22T04:26:31;100269.38;;;8.36;100.00
8160;BME280;27404;52.398;9.646;2023-04-22T04:28:58;100277.34;;;8.37;100.00
8160;BME280;27404;52.398;9.646;2023-04-22T04:31:26;100269.63;;;8.53;100.00
8160;BME280;27404;52.398;9.646;2023-04-22T04:33:51;100274.63;;;8.68;100.00
8160;BME280;27404;52.398;9.646;2023-04-22T04:36:17;100270.53;;;8.77;100.00
8160;BME280;27404;52.398;9.646;2023-04-22T04:38:43;100271.59;;;8.88;100.00
8160;BME280;27404;52.398;9.646;2023-04-22T04:41:08;100276.47;;;8.98;100.00
8160;BME280;27404;52.398;9.646;2023-04-22T04:43:34;100272.00;;;9.15;100.00
8160;BME280;27404;52.398;9.646;2023-04-22T04:46:00;100267.75;;;9.31;100.00
8160;BME280;27404;52.398;9.646;2023-04-22T04:48:26;100272.03;;;9.39;100.00
8160;BME280;27404;52.398;9.646;2023-04-22T04:50:52;100266.81;;;9.50;100.00
8160;BME280;27404;52.398;9.646;2023-04-22T04:53:19;100259.53;;;9.67;100.00
8160;BME280;27404;52.398;9.646;2023-04-22T04:55:45;100255.38;;;9.76;100.00
8160;BME280;27404;52.398;9.646;2023-04-22T04:58:11;100251.25;;;9.74;100.00
8160;BME280;27404;52.398;9.646;2023-04-22T05:00:36;100259.88;;;9.83;100.00
8160;BME280;27404;52.398;9.646;2023-04-22T05:03:02;100259.63;;;9.96;100.00
8160;BME280;27404;52.398;9.646;2023-04-22T05:05:28;100256.16;;;10.13;100.00
8160;BME280;27404;52.398;9.646;2023-04-22T05:07:53;100257.50;;;10.27;100.00
8160;BME280;27404;52.398;9.646;2023-04-22T05:10:19;100257.13;;;10.47;100.00
8160;BME280;27404;52.398;9.646;2023-04-22T05:12:45;100255.41;;;10.58;100.00
8160;BME280;27404;52.398;9.646;2023-04-22T05:15:12;100256.59;;;10.79;100.00
8160;BME280;27404;52.398;9.646;2023-04-22T05:17:38;100268.88;;;10.94;100.00
8160;BME280;27404;52.398;9.646;2023-04-22T05:20:05;100265.41;;;11.16;100.00
8160;BME280;27404;52.398;9.646;2023-04-22T05:22:30;100265.31;;;11.28;100.00
8160;BME280;27404;52.398;9.646;2023-04-22T05:24:56;100265.63;;;11.31;100.00
8160;BME280;27404;52.398;9.646;2023-04-22T05:27:21;100260.25;;;11.36;100.00
8160;BME280;27404;52.398;9.646;2023-04-22T05:29:47;100266.28;;;11.38;100.00
8160;BME280;27404;52.398;9.646;2023-04-22T05:32:12;100266.31;;;11.55;100.00
8160;BME280;27404;52.398;9.646;2023-04-22T05:34:38;100263.69;;;11.66;100.00
8160;BME280;27404;52.398;9.646;2023-04-22T05:37:03;100271.38;;;11.69;100.00
8160;BME280;27404;52.398;9.646;2023-04-22T05:39:29;100265.09;;;11.68;100.00
8160;BME280;27404;52.398;9.646;2023-04-22T05:41:55;100269.22;;;11.71;100.00
8160;BME280;27404;52.398;9.646;2023-04-22T05:44:20;100274.13;;;11.86;100.00
8160;BME280;27404;52.398;9.646;2023-04-22T05:46:46;100268.88;;;11.84;100.00
8160;BME280;27404;52.398;9.646;2023-04-22T05:49:11;100266.63;;;11.81;100.00
8160;BME280;27404;52.398;9.646;2023-04-22T05:51:37;100274.78;;;11.76;100.00
8160;BME280;27404;52.398;9.646;2023-04-22T05:54:02;100263.81;;;11.76;100.00
8160;BME280;27404;52.398;9.646;2023-04-22T05:56:28;100264.41;;;11.78;100.00
8160;BME280;27404;52.398;9.646;2023-04-22T05:58:53;100253.22;;;11.80;100.00
8160;BME280;27404;52.398;9.646;2023-04-22T06:01:19;100257.34;;;12.27;100.00
8160;BME280;27404;52.398;9.646;2023-04-22T06:03:44;100266.09;;;15.69;97.19
8160;BME280;27404;52.398;9.646;2023-04-22T06:06:10;100268.06;;;19.56;74.83
8160;BME280;27404;52.398;9.646;2023-04-22T06:08:35;100281.63;;;22.50;61.21
8160;BME280;27404;52.398;9.646;2023-04-22T06:11:00;100282.81;;;25.08;50.92
8160;BME280;27404;52.398;9.646;2023-04-22T06:13:26;100280.94;;;26.95;43.90
8160;BME280;27404;52.398;9.646;2023-04-22T06:15:52;100290.72;;;26.60;38.59
8160;BME280;27404;52.398;9.646;2023-04-22T06:18:17;100281.88;;;26.46;38.19
8160;BME280;27404;52.398;9.646;2023-04-22T06:20:42;100284.91;;;27.83;36.64
8160;BME280;27404;52.398;9.646;2023-04-22T06:23:08;100282.13;;;29.06;34.65
8160;BME280;27404;52.398;9.646;2023-04-22T06:25:33;100293.94;;;29.16;33.58
8160;BME280;27404;52.398;9.646;2023-04-22T06:27:59;100293.72;;;28.49;33.37
8160;BME280;27404;52.398;9.646;2023-04-22T06:30:25;100294.59;;;28.18;33.45
8160;BME280;27404;52.398;9.646;2023-04-22T06:32:51;100288.91;;;27.22;34.15
8160;BME280;27404;52.398;9.646;2023-04-22T06:35:17;100281.56;;;28.10;34.21
8160;BME280;27404;52.398;9.646;2023-04-22T06:37:42;100275.78;;;25.82;35.14
8160;BME280;27404;52.398;9.646;2023-04-22T06:40:09;100274.59;;;26.70;35.26
8160;BME280;27404;52.398;9.646;2023-04-22T06:42:35;100273.53;;;26.62;35.24
8160;BME280;27404;52.398;9.646;2023-04-22T06:45:01;100276.84;;;25.90;36.59
8160;BME280;27404;52.398;9.646;2023-04-22T06:47:27;100267.88;;;26.09;36.54
8160;BME280;27404;52.398;9.646;2023-04-22T06:49:52;100266.47;;;26.40;36.10
8160;BME280;27404;52.398;9.646;2023-04-22T06:52:18;100262.53;;;26.16;36.38
8160;BME280;27404;52.398;9.646;2023-04-22T06:54:44;100262.69;;;24.81;36.96
8160;BME280;27404;52.398;9.646;2023-04-22T06:57:09;100247.72;;;24.98;37.63
8160;BME280;27404;52.398;9.646;2023-04-22T06:59:35;100254.09;;;23.66;39.87
8160;BME280;27404;52.398;9.646;2023-04-22T07:02:00;100252.09;;;23.85;40.80
8160;BME280;27404;52.398;9.646;2023-04-22T07:04:25;100258.03;;;22.74;41.86
8160;BME280;27404;52.398;9.646;2023-04-22T07:06:53;100255.16;;;22.12;44.04
8160;BME280;27404;52.398;9.646;2023-04-22T07:09:19;100253.03;;;21.14;46.49
8160;BME280;27404;52.398;9.646;2023-04-22T07:11:44;100257.31;;;20.24;49.15
8160;BME280;27404;52.398;9.646;2023-04-22T07:14:10;100263.81;;;19.92;51.41
8160;BME280;27404;52.398;9.646;2023-04-22T07:16:36;100264.16;;;19.57;54.39
8160;BME280;27404;52.398;9.646;2023-04-22T07:19:03;100263.63;;;19.41;55.88
8160;BME280;27404;52.398;9.646;2023-04-22T07:21:30;100255.00;;;18.90;57.27
8160;BME280;27404;52.398;9.646;2023-04-22T07:23:56;100259.38;;;18.39;60.11
8160;BME280;27404;52.398;9.646;2023-04-22T07:26:22;100252.47;;;18.56;62.05
8160;BME280;27404;52.398;9.646;2023-04-22T07:28:47;100240.91;;;18.54;63.68
8160;BME280;27404;52.398;9.646;2023-04-22T07:31:13;100241.31;;;18.61;63.87
8160;BME280;27404;52.398;9.646;2023-04-22T07:33:38;100241.50;;;18.50;65.47
8160;BME280;27404;52.398;9.646;2023-04-22T07:36:05;100241.94;;;18.39;66.48
8160;BME280;27404;52.398;9.646;2023-04-22T07:38:30;100237.78;;;17.92;67.71
8160;BME280;27404;52.398;9.646;2023-04-22T07:40:56;100235.75;;;17.79;69.57
8160;BME280;27404;52.398;9.646;2023-04-22T07:43:21;100232.75;;;17.75;70.56
8160;BME280;27404;52.398;9.646;2023-04-22T07:45:47;100242.50;;;17.92;72.47
8160;BME280;27404;52.398;9.646;2023-04-22T07:48:12;100242.88;;;18.10;70.92
8160;BME280;27404;52.398;9.646;2023-04-22T07:50:38;100248.59;;;18.38;71.35
8160;BME280;27404;52.398;9.646;2023-04-22T07:53:04;100248.59;;;18.38;70.60
8160;BME280;27404;52.398;9.646;2023-04-22T07:55:30;100244.09;;;18.23;72.03
8160;BME280;27404;52.398;9.646;2023-04-22T07:57:55;100234.88;;;18.27;72.45
8160;BME280;27404;52.398;9.646;2023-04-22T08:00:21;100234.09;;;17.78;73.13
8160;BME280;27404;52.398;9.646;2023-04-22T08:02:47;100227.34;;;18.14;74.44
8160;BME280;27404;52.398;9.646;2023-04-22T08:05:12;100233.22;;;18.07;72.53
8160;BME280;27404;52.398;9.646;2023-04-22T08:07:38;100235.63;;;18.14;73.58
8160;BME280;27404;52.398;9.646;2023-04-22T08:10:04;100233.09;;;18.17;73.51
8160;BME280;27404;52.398;9.646;2023-04-22T08:12:29;100225.00;;;17.97;72.58
8160;BME280;27404;52.398;9.646;2023-04-22T08:14:55;100232.75;;;18.00;73.89
8160;BME280;27404;52.398;9.646;2023-04-22T08:17:22;100231.88;;;18.04;72.82
8160;BME280;27404;52.398;9.646;2023-04-22T08:19:48;100235.88;;;18.37;70.21
8160;BME280;27404;52.398;9.646;2023-04-22T08:22:14;100230.97;;;18.53;72.75
8160;BME280;27404;52.398;9.646;2023-04-22T08:24:40;100232.34;;;18.69;70.56
8160;BME280;27404;52.398;9.646;2023-04-22T08:27:05;100230.41;;;18.70;69.51
8160;BME280;27404;52.398;9.646;2023-04-22T08:29:31;100230.31;;;18.56;69.20
8160;BME280;27404;52.398;9.646;2023-04-22T08:31:57;100240.00;;;18.58;69.16
8160;BME280;27404;52.398;9.646;2023-04-22T08:34:23;100228.31;;;18.61;69.98
8160;BME280;27404;52.398;9.646;2023-04-22T08:36:50;100234.59;;;18.86;68.28
8160;BME280;27404;52.398;9.646;2023-04-22T08:39:16;100230.31;;;18.94;67.72
8160;BME280;27404;52.398;9.646;2023-04-22T08:41:42;100232.53;;;19.11;67.58
8160;BME280;27404;52.398;9.646;2023-04-22T08:44:08;100226.72;;;19.27;67.12
8160;BME280;27404;52.398;9.646;2023-04-22T08:46:34;100226.56;;;19.37;66.46
8160;BME280;27404;52.398;9.646;2023-04-22T08:49:00;100226.84;;;19.35;66.22
8160;BME280;27404;52.398;9.646;2023-04-22T08:51:29;100233.13;;;19.41;66.49
8160;BME280;27404;52.398;9.646;2023-04-22T08:53:57;100234.88;;;19.51;64.52
8160;BME280;27404;52.398;9.646;2023-04-22T08:56:23;100228.22;;;19.52;64.48
8160;BME280;27404;52.398;9.646;2023-04-22T08:58:49;100224.91;;;19.64;64.42
8160;BME280;27404;52.398;9.646;2023-04-22T09:01:16;100219.28;;;19.55;62.67
8160;BME280;27404;52.398;9.646;2023-04-22T09:03:42;100215.84;;;19.30;63.28
8160;BME280;27404;52.398;9.646;2023-04-22T09:06:09;100203.38;;;19.75;63.32
8160;BME280;27404;52.398;9.646;2023-04-22T09:08:35;100198.88;;;19.93;62.91
8160;BME280;27404;52.398;9.646;2023-04-22T09:11:02;100207.34;;;20.24;62.94
8160;BME280;27404;52.398;9.646;2023-04-22T09:13:28;100197.59;;;20.50;63.06
8160;BME280;27404;52.398;9.646;2023-04-22T09:15:53;100196.03;;;20.57;63.72
8160;BME280;27404;52.398;9.646;2023-04-22T09:18:19;100198.34;;;21.01;62.34
8160;BME280;27404;52.398;9.646;2023-04-22T09:20:48;100193.88;;;21.23;60.74
8160;BME280;27404;52.398;9.646;2023-04-22T09:23:14;100199.09;;;21.56;59.48
8160;BME280;27404;52.398;9.646;2023-04-22T09:25:40;100197.72;;;21.76;57.07
8160;BME280;27404;52.398;9.646;2023-04-22T09:28:10;100197.78;;;21.94;56.05
8160;BME280;27404;52.398;9.646;2023-04-22T09:30:36;100200.94;;;22.10;56.02
8160;BME280;27404;52.398;9.646;2023-04-22T09:33:06;100199.63;;;22.16;56.73
8160;BME280;27404;52.398;9.646;2023-04-22T09:35:35;100188.50;;;22.42;55.58
8160;BME280;27404;52.398;9.646;2023-04-22T09:38:03;100187.72;;;22.59;54.13
8160;BME280;27404;52.398;9.646;2023-04-22T09:40:31;100186.75;;;22.82;54.76
8160;BME280;27404;52.398;9.646;2023-04-22T09:42:58;100185.25;;;22.75;53.42
8160;BME280;27404;52.398;9.646;2023-04-22T09:45:38;100183.13;;;22.72;54.11
8160;BME280;27404;52.398;9.646;2023-04-22T09:48:18;100180.69;;;22.62;53.63
8160;BME280;27404;52.398;9.646;2023-04-22T09:50:49;100180.00;;;22.39;53.82
8160;BME280;27404;52.398;9.646;2023-04-22T09:53:17;100173.59;;;22.21;54.20
8160;BME280;27404;52.398;9.646;2023-04-22T09:55:46;100176.56;;;22.24;56.61
8160;BME280;27404;52.398;9.646;2023-04-22T09:58:16;100178.19;;;22.34;54.06
8160;BME280;27404;52.398;9.646;2023-04-22T10:00:53;100171.66;;;22.39;55.79
8160;BME280;27404;52.398;9.646;2023-04-22T10:03:20;100172.47;;;22.39;55.35
8160;BME280;27404;52.398;9.646;2023-04-22T10:05:46;100169.50;;;22.18;55.09
8160;BME280;27404;52.398;9.646;2023-04-22T10:08:13;100167.34;;;21.97;56.68
8160;BME280;27404;52.398;9.646;2023-04-22T10:10:39;100167.03;;;21.99;56.26
8160;BME280;27404;52.398;9.646;2023-04-22T10:13:05;100162.63;;;22.24;57.86
8160;BME280;27404;52.398;9.646;2023-04-22T10:15:57;100158.25;;;22.50;54.54
8160;BME280;27404;52.398;9.646;2023-04-22T10:18:24;100155.28;;;22.72;54.11
8160;BME280;27404;52.398;9.646;2023-04-22T10:20:52;100150.84;;;22.71;55.86
8160;BME280;27404;52.398;9.646;2023-04-22T10:23:20;100146.91;;;22.72;54.06
8160;BME280;27404;52.398;9.646;2023-04-22T10:25:53;100148.69;;;22.77;55.45
8160;BME280;27404;52.398;9.646;2023-04-22T10:28:22;100144.63;;;22.74;53.67
8160;BME280;27404;52.398;9.646;2023-04-22T10:30:48;100145.44;;;22.31;53.63
8160;BME280;27404;52.398;9.646;2023-04-22T10:38:40;100141.66;;;22.27;55.14
8160;BME280;27404;52.398;9.646;2023-04-22T10:41:13;100137.56;;;22.07;54.75
8160;BME280;27404;52.398;9.646;2023-04-22T10:43:46;100146.25;;;22.23;54.22
8160;BME280;27404;52.398;9.646;2023-04-22T10:49:16;100132.34;;;22.31;54.15
8160;BME280;27404;52.398;9.646;2023-04-22T10:57:05;100120.53;;;22.43;55.43
8160;BME280;27404;52.398;9.646;2023-04-22T10:59:35;100117.94;;;22.47;56.17
8160;BME280;27404;52.398;9.646;2023-04-22T11:02:07;100136.09;;;22.53;53.82
8160;BME280;27404;52.398;9.646;2023-04-22T11:04:33;100124.31;;;22.65;52.38
8160;BME280;27404;52.398;9.646;2023-04-22T11:09:44;100107.44;;;22.53;53.17
8160;BME280;27404;52.398;9.646;2023-04-22T11:15:14;100096.78;;;22.55;54.13
8160;BME280;27404;52.398;9.646;2023-04-22T11:17:44;100095.97;;;22.63;51.79
8160;BME280;27404;52.398;9.646;2023-04-22T11:20:11;100097.06;;;22.71;51.47
8160;BME280;27404;52.398;9.646;2023-04-22T11:22:40;100099.00;;;22.88;51.92
8160;BME280;27404;52.398;9.646;2023-04-22T11:25:05;100091.41;;;23.06;51.74
8160;BME280;27404;52.398;9.646;2023-04-22T11:27:32;100093.06;;;22.98;49.83
8160;BME280;27404;52.398;9.646;2023-04-22T11:32:30;100090.09;;;23.03;50.12
8160;BME280;27404;52.398;9.646;2023-04-22T11:34:56;100080.47;;;22.92;51.13
8160;BME280;27404;52.398;9.646;2023-04-22T11:37:22;100077.66;;;22.92;49.79
8160;BME280;27404;52.398;9.646;2023-04-22T11:39:48;100076.03;;;22.91;49.77
8160;BME280;27404;52.398;9.646;2023-04-22T11:42:20;100073.59;;;22.89;50.29
8160;BME280;27404;52.398;9.646;2023-04-22T11:44:47;100079.84;;;22.86;50.16
8160;BME280;27404;52.398;9.646;2023-04-22T11:47:12;100064.41;;;22.89;49.28
8160;BME280;27404;52.398;9.646;2023-04-22T11:49:38;100059.31;;;22.91;49.83
8160;BME280;27404;52.398;9.646;2023-04-22T11:52:03;100066.81;;;22.99;49.50
8160;BME280;27404;52.398;9.646;2023-04-22T11:54:36;100062.63;;;22.84;48.45
8160;BME280;27404;52.398;9.646;2023-04-22T11:57:06;100065.78;;;23.13;49.00
8160;BME280;27404;52.398;9.646;2023-04-22T11:59:33;100059.81;;;23.32;48.36
8160;BME280;27404;52.398;9.646;2023-04-22T12:01:58;100061.50;;;23.24;47.46
8160;BME280;27404;52.398;9.646;2023-04-22T12:04:24;100070.19;;;23.22;49.42
8160;BME280;27404;52.398;9.646;2023-04-22T12:06:52;100059.03;;;23.22;49.17
8160;BME280;27404;52.398;9.646;2023-04-22T12:09:17;100046.69;;;23.32;49.28
8160;BME280;27404;52.398;9.646;2023-04-22T12:11:44;100041.69;;;23.47;48.85
8160;BME280;27404;52.398;9.646;2023-04-22T12:14:10;100052.78;;;23.56;49.20
8160;BME280;27404;52.398;9.646;2023-04-22T12:16:40;100041.22;;;23.45;52.23
8160;BME280;27404;52.398;9.646;2023-04-22T12:19:06;100045.50;;;23.63;50.60
8160;BME280;27404;52.398;9.646;2023-04-22T12:21:32;100052.19;;;23.92;49.40
8160;BME280;27404;52.398;9.646;2023-04-22T12:24:06;100047.91;;;23.74;49.38
8160;BME280;27404;52.398;9.646;2023-04-22T12:26:32;100037.97;;;23.85;50.50
8160;BME280;27404;52.398;9.646;2023-04-22T12:28:59;100032.59;;;24.01;50.89
8160;BME280;27404;52.398;9.646;2023-04-22T12:31:25;100031.75;;;24.22;50.17
8160;BME280;27404;52.398;9.646;2023-04-22T12:33:51;100034.88;;;24.20;49.93
8160;BME280;27404;52.398;9.646;2023-04-22T12:36:18;100020.41;;;24.52;48.79
8160;BME280;27404;52.398;9.646;2023-04-22T12:38:46;100025.59;;;24.16;48.31
8160;BME280;27404;52.398;9.646;2023-04-22T12:41:12;100022.06;;;24.07;49.50
8160;BME280;27404;52.398;9.646;2023-04-22T12:43:37;100022.16;;;23.89;48.87
8160;BME280;27404;52.398;9.646;2023-04-22T12:46:07;100022.53;;;24.09;50.20
8160;BME280;27404;52.398;9.646;2023-04-22T12:48:34;100018.47;;;24.19;50.49
8160;BME280;27404;52.398;9.646;2023-04-22T12:51:03;100021.31;;;24.31;48.85
8160;BME280;27404;52.398;9.646;2023-04-22T12:53:29;100023.69;;;24.42;48.74
8160;BME280;27404;52.398;9.646;2023-04-22T12:55:56;100022.84;;;24.41;50.34
8160;BME280;27404;52.398;9.646;2023-04-22T12:58:23;100017.63;;;24.39;47.75
8160;BME280;27404;52.398;9.646;2023-04-22T13:00:49;100019.75;;;24.67;47.46
8160;BME280;27404;52.398;9.646;2023-04-22T13:03:14;100012.94;;;24.90;46.67
8160;BME280;27404;52.398;9.646;2023-04-22T13:05:40;100005.22;;;24.62;47.17
8160;BME280;27404;52.398;9.646;2023-04-22T13:08:05;100004.91;;;24.76;46.21
8160;BME280;27404;52.398;9.646;2023-04-22T13:10:31;100000.66;;;24.57;44.68
8160;BME280;27404;52.398;9.646;2023-04-22T13:12:56;99996.34;;;24.47;44.91
8160;BME280;27404;52.398;9.646;2023-04-22T13:15:25;99992.28;;;24.69;45.02